sensor_id;sensor_type;location;lat;lon;timestamp;P1;durP1;ratioP1;P2;durP2;ratioP2
6111;SDS011;3086;48.802;9.394;2023-05-10T00:02:03;2.00;;;1.90;;
6111;SDS011;3086;48.802;9.394;2023-05-10T00:05:25;2.53;;;2.20;;
6111;SDS011;3086;48.802;9.394;2023-05-10T00:08:46;2.80;;;2.50;;
6111;SDS011;3086;48.802;9.394;2023-05-10T00:12:08;3.00;;;2.70;;
6111;SDS011;3086;48.802;9.394;2023-05-10T00:15:29;2.80;;;2.53;;
6111;SDS011;3086;48.802;9.394;2023-05-10T00:18:52;3.07;;;2.60;;
6111;SDS011;3086;48.802;9.394;2023-05-10T00:22:14;2.73;;;2.07;;
6111;SDS011;3086;48.802;9.394;2023-05-10T00:25:35;1.83;;;1.60;;
6111;SDS011;3086;48.802;9.394;2023-05-10T00:28:57;1.63;;;1.53;;
6111;SDS011;3086;48.802;9.394;2023-05-10T00:32:20;1.40;;;1.30;;
6111;SDS011;3086;48.802;9.394;2023-05-10T00:35:43;1.03;;;1.03;;
6111;SDS011;3086;48.802;9.394;2023-05-10T00:39:06;1.40;;;1.10;;
6111;SDS011;3086;48.802;9.394;2023-05-10T00:42:27;1.17;;;1.03;;
6111;SDS011;3086;48.802;9.394;2023-05-10T00:45:49;1.57;;;1.00;;
6111;SDS011;3086;48.802;9.394;2023-05-10T00:49:11;2.23;;;1.20;;
6111;SDS011;3086;48.802;9.394;2023-05-10T00:52:34;1.13;;;1.03;;
6111;SDS011;3086;48.802;9.394;2023-05-10T00:55:55;1.20;;;1.00;;
6111;SDS011;3086;48.802;9.394;2023-05-10T00:59:17;1.13;;;1.10;;
6111;SDS011;3086;48.802;9.394;2023-05-10T01:02:39;1.00;;;1.00;;
6111;SDS011;3086;48.802;9.394;2023-05-10T01:06:01;1.00;;;1.00;;
6111;SDS011;3086;48.802;9.394;2023-05-10T01:13:42;2.77;;;0.97;;
6111;SDS011;3086;48.802;9.394;2023-05-10T01:17:04;0.73;;;0.73;;
6111;SDS011;3086;48.802;9.394;2023-05-10T01:20:26;1.00;;;0.90;;
6111;SDS011;3086;48.802;9.394;2023-05-10T01:23:57;0.80;;;0.80;;
6111;SDS011;3086;48.802;9.394;2023-05-10T01:31:37;0.97;;;0.97;;
6111;SDS011;3086;48.802;9.394;2023-05-10T01:35:17;1.00;;;0.87;;
6111;SDS011;3086;48.802;9.394;2023-05-10T01:38:43;2.17;;;1.00;;
6111;SDS011;3086;48.802;9.394;2023-05-10T01:42:08;0.90;;;0.90;;
6111;SDS011;3086;48.802;9.394;2023-05-10T01:45:31;1.03;;;1.03;;
6111;SDS011;3086;48.802;9.394;2023-05-10T01:48:57;1.10;;;1.10;;
6111;SDS011;3086;48.802;9.394;2023-05-10T01:52:22;1.30;;;1.30;;
6111;SDS011;3086;48.802;9.394;2023-05-10T01:55:48;1.00;;;1.00;;
6111;SDS011;3086;48.802;9.394;2023-05-10T01:59:11;1.23;;;1.23;;
6111;SDS011;3086;48.802;9.394;2023-05-10T02:02:36;1.20;;;1.20;;
6111;SDS011;3086;48.802;9.394;2023-05-10T02:06:00;1.70;;;1.27;;
6111;SDS011;3086;48.802;9.394;2023-05-10T02:09:23;1.43;;;1.37;;
6111;SDS011;3086;48.802;9.394;2023-05-10T02:12:47;1.23;;;1.23;;
6111;SDS011;3086;48.802;9.394;2023-05-10T02:16:09;1.23;;;1.20;;
6111;SDS011;3086;48.802;9.394;2023-05-10T02:19:31;1.83;;;1.40;;
6111;SDS011;3086;48.802;9.394;2023-05-10T02:22:55;1.07;;;1.07;;
6111;SDS011;3086;48.802;9.394;2023-05-10T02:26:18;3.70;;;1.50;;
6111;SDS011;3086;48.802;9.394;2023-05-10T02:29:41;1.20;;;1.20;;
6111;SDS011;3086;48.802;9.394;2023-05-10T02:36:48;1.33;;;1.33;;
6111;SDS011;3086;48.802;9.394;2023-05-10T02:40:11;1.60;;;1.30;;
6111;SDS011;3086;48.802;9.394;2023-05-10T02:43:33;1.50;;;1.40;;
6111;SDS011;3086;48.802;9.394;2023-05-10T02:46:55;1.20;;;1.20;;
6111;SDS011;3086;48.802;9.394;2023-05-10T02:50:17;1.10;;;1.10;;
6111;SDS011;3086;48.802;9.394;2023-05-10T02:53:39;1.20;;;1.20;;
6111;SDS011;3086;48.802;9.394;2023-05-10T02:57:04;1.27;;;1.23;;
6111;SDS011;3086;48.802;9.394;2023-05-10T03:00:26;1.43;;;1.33;;
6111;SDS011;3086;48.802;9.394;2023-05-10T03:03:47;1.20;;;1.20;;
6111;SDS011;3086;48.802;9.394;2023-05-10T03:07:09;1.10;;;1.10;;
6111;SDS011;3086;48.802;9.394;2023-05-10T03:10:30;3.20;;;1.47;;
6111;SDS011;3086;48.802;9.394;2023-05-10T03:13:56;2.60;;;1.70;;
6111;SDS011;3086;48.802;9.394;2023-05-10T03:17:29;1.20;;;1.20;;
6111;SDS011;3086;48.802;9.394;2023-05-10T03:20:55;3.37;;;1.40;;
6111;SDS011;3086;48.802;9.394;2023-05-10T03:24:20;1.73;;;1.50;;
6111;SDS011;3086;48.802;9.394;2023-05-10T03:27:43;2.17;;;1.50;;
6111;SDS011;3086;48.802;9.394;2023-05-10T03:31:06;1.20;;;1.20;;
6111;SDS011;3086;48.802;9.394;2023-05-10T03:34:34;1.90;;;1.43;;
6111;SDS011;3086;48.802;9.394;2023-05-10T03:38:02;1.20;;;1.20;;
6111;SDS011;3086;48.802;9.394;2023-05-10T03:41:24;2.10;;;1.30;;
6111;SDS011;3086;48.802;9.394;2023-05-10T03:44:46;1.40;;;1.30;;
6111;SDS011;3086;48.802;9.394;2023-05-10T03:48:10;1.50;;;1.40;;
6111;SDS011;3086;48.802;9.394;2023-05-10T03:51:33;1.10;;;1.10;;
6111;SDS011;3086;48.802;9.394;2023-05-10T03:54:55;2.97;;;1.43;;
6111;SDS011;3086;48.802;9.394;2023-05-10T03:58:16;3.03;;;1.40;;
6111;SDS011;3086;48.802;9.394;2023-05-10T04:01:38;2.70;;;1.30;;
6111;SDS011;3086;48.802;9.394;2023-05-10T04:05:01;4.23;;;1.37;;
6111;SDS011;3086;48.802;9.394;2023-05-10T04:08:22;1.20;;;1.20;;
6111;SDS011;3086;48.802;9.394;2023-05-10T04:11:44;2.67;;;1.50;;
6111;SDS011;3086;48.802;9.394;2023-05-10T04:15:06;1.40;;;1.40;;
6111;SDS011;3086;48.802;9.394;2023-05-10T04:18:28;1.97;;;1.50;;
6111;SDS011;3086;48.802;9.394;2023-05-10T04:21:51;1.93;;;1.60;;
6111;SDS011;3086;48.802;9.394;2023-05-10T04:25:13;1.90;;;1.80;;
6111;SDS011;3086;48.802;9.394;2023-05-10T04:28:35;2.43;;;2.23;;
6111;SDS011;3086;48.802;9.394;2023-05-10T04:31:56;3.30;;;1.80;;
6111;SDS011;3086;48.802;9.394;2023-05-10T04:35:24;1.87;;;1.77;;
6111;SDS011;3086;48.802;9.394;2023-05-10T04:38:47;4.50;;;2.27;;
6111;SDS011;3086;48.802;9.394;2023-05-10T04:42:09;2.00;;;1.80;;
6111;SDS011;3086;48.802;9.394;2023-05-10T04:45:31;3.33;;;1.90;;
6111;SDS011;3086;48.802;9.394;2023-05-10T04:48:52;2.97;;;1.87;;
6111;SDS011;3086;48.802;9.394;2023-05-10T04:52:14;1.90;;;1.70;;
6111;SDS011;3086;48.802;9.394;2023-05-10T04:55:38;3.23;;;1.80;;
6111;SDS011;3086;48.802;9.394;2023-05-10T04:59:00;2.00;;;1.80;;
6111;SDS011;3086;48.802;9.394;2023-05-10T05:02:22;1.57;;;1.47;;
6111;SDS011;3086;48.802;9.394;2023-05-10T05:05:44;1.80;;;1.70;;
6111;SDS011;3086;48.802;9.394;2023-05-10T05:09:06;1.93;;;1.70;;
6111;SDS011;3086;48.802;9.394;2023-05-10T05:12:29;1.90;;;1.80;;
6111;SDS011;3086;48.802;9.394;2023-05-10T05:15:50;2.00;;;1.90;;
6111;SDS011;3086;48.802;9.394;2023-05-10T05:19:12;2.40;;;1.60;;
6111;SDS011;3086;48.802;9.394;2023-05-10T05:22:33;3.20;;;1.70;;
6111;SDS011;3086;48.802;9.394;2023-05-10T05:25:55;1.97;;;1.80;;
6111;SDS011;3086;48.802;9.394;2023-05-10T05:29:32;2.57;;;1.90;;
6111;SDS011;3086;48.802;9.394;2023-05-10T05:32:54;3.07;;;2.00;;
6111;SDS011;3086;48.802;9.394;2023-05-10T05:36:16;2.10;;;2.00;;
6111;SDS011;3086;48.802;9.394;2023-05-10T05:39:38;3.80;;;2.30;;
6111;SDS011;3086;48.802;9.394;2023-05-10T05:42:59;2.00;;;1.90;;
6111;SDS011;3086;48.802;9.394;2023-05-10T05:46:22;2.67;;;1.90;;
6111;SDS011;3086;48.802;9.394;2023-05-10T05:49:44;2.27;;;1.67;;
6111;SDS011;3086;48.802;9.394;2023-05-10T05:53:06;1.90;;;1.80;;
6111;SDS011;3086;48.802;9.394;2023-05-10T05:56:28;2.10;;;2.00;;
6111;SDS011;3086;48.802;9.394;2023-05-10T05:59:49;2.60;;;1.70;;
6111;SDS011;3086;48.802;9.394;2023-05-10T06:03:12;2.63;;;2.20;;
6111;SDS011;3086;48.802;9.394;2023-05-10T06:06:34;1.80;;;1.70;;
6111;SDS011;3086;48.802;9.394;2023-05-10T06:09:55;1.93;;;1.83;;
6111;SDS011;3086;48.802;9.394;2023-05-10T06:13:17;2.27;;;2.03;;
6111;SDS011;3086;48.802;9.394;2023-05-10T06:16:39;2.70;;;2.20;;
6111;SDS011;3086;48.802;9.394;2023-05-10T06:20:02;2.53;;;1.53;;
6111;SDS011;3086;48.802;9.394;2023-05-10T06:23:23;1.87;;;1.70;;
6111;SDS011;3086;48.802;9.394;2023-05-10T06:26:45;3.77;;;2.00;;
6111;SDS011;3086;48.802;9.394;2023-05-10T06:30:07;3.33;;;2.00;;
6111;SDS011;3086;48.802;9.394;2023-05-10T06:33:29;1.93;;;1.80;;
6111;SDS011;3086;48.802;9.394;2023-05-10T06:36:52;2.50;;;1.90;;
6111;SDS011;3086;48.802;9.394;2023-05-10T06:40:14;4.37;;;2.07;;
6111;SDS011;3086;48.802;9.394;2023-05-10T06:43:36;2.13;;;2.00;;
6111;SDS011;3086;48.802;9.394;2023-05-10T06:46:59;2.43;;;1.73;;
6111;SDS011;3086;48.802;9.394;2023-05-10T06:50:21;1.80;;;1.70;;
6111;SDS011;3086;48.802;9.394;2023-05-10T06:53:44;2.90;;;1.63;;
6111;SDS011;3086;48.802;9.394;2023-05-10T06:57:05;2.30;;;2.10;;
6111;SDS011;3086;48.802;9.394;2023-05-10T07:00:27;2.53;;;2.33;;
6111;SDS011;3086;48.802;9.394;2023-05-10T07:03:48;2.47;;;1.80;;
6111;SDS011;3086;48.802;9.394;2023-05-10T07:07:10;2.97;;;2.03;;
6111;SDS011;3086;48.802;9.394;2023-05-10T07:10:33;2.70;;;1.83;;
6111;SDS011;3086;48.802;9.394;2023-05-10T07:13:55;1.67;;;1.57;;
6111;SDS011;3086;48.802;9.394;2023-05-10T07:17:17;2.20;;;1.90;;
6111;SDS011;3086;48.802;9.394;2023-05-10T07:20:38;2.20;;;2.00;;
6111;SDS011;3086;48.802;9.394;2023-05-10T07:24:00;2.47;;;1.87;;
6111;SDS011;3086;48.802;9.394;2023-05-10T07:27:23;1.90;;;1.80;;
6111;SDS011;3086;48.802;9.394;2023-05-10T07:30:45;2.07;;;1.90;;
6111;SDS011;3086;48.802;9.394;2023-05-10T07:34:06;2.57;;;1.73;;
6111;SDS011;3086;48.802;9.394;2023-05-10T07:37:28;2.03;;;1.60;;
6111;SDS011;3086;48.802;9.394;2023-05-10T07:40:49;2.77;;;2.00;;
6111;SDS011;3086;48.802;9.394;2023-05-10T07:44:12;1.93;;;1.60;;
6111;SDS011;3086;48.802;9.394;2023-05-10T07:47:33;2.17;;;1.63;;
6111;SDS011;3086;48.802;9.394;2023-05-10T07:50:55;1.70;;;1.60;;
6111;SDS011;3086;48.802;9.394;2023-05-10T07:54:17;1.97;;;1.83;;
6111;SDS011;3086;48.802;9.394;2023-05-10T07:57:38;1.90;;;1.80;;
6111;SDS011;3086;48.802;9.394;2023-05-10T08:01:01;1.80;;;1.70;;
6111;SDS011;3086;48.802;9.394;2023-05-10T08:04:23;2.00;;;1.90;;
6111;SDS011;3086;48.802;9.394;2023-05-10T08:07:44;3.37;;;1.90;;
6111;SDS011;3086;48.802;9.394;2023-05-10T08:11:06;1.60;;;1.40;;
6111;SDS011;3086;48.802;9.394;2023-05-10T08:14:28;2.70;;;1.70;;
6111;SDS011;3086;48.802;9.394;2023-05-10T08:17:51;1.97;;;1.87;;
6111;SDS011;3086;48.802;9.394;2023-05-10T08:21:13;2.47;;;1.87;;
6111;SDS011;3086;48.802;9.394;2023-05-10T08:24:34;2.80;;;1.40;;
6111;SDS011;3086;48.802;9.394;2023-05-10T08:27:58;1.60;;;1.50;;
6111;SDS011;3086;48.802;9.394;2023-05-10T08:31:19;2.23;;;1.47;;
6111;SDS011;3086;48.802;9.394;2023-05-10T08:34:42;3.97;;;1.70;;
6111;SDS011;3086;48.802;9.394;2023-05-10T08:38:04;2.83;;;1.47;;
6111;SDS011;3086;48.802;9.394;2023-05-10T08:41:25;2.23;;;1.70;;
6111;SDS011;3086;48.802;9.394;2023-05-10T08:44:47;3.20;;;1.70;;
6111;SDS011;3086;48.802;9.394;2023-05-10T08:48:10;2.27;;;2.10;;
6111;SDS011;3086;48.802;9.394;2023-05-10T08:51:34;1.80;;;1.70;;
6111;SDS011;3086;48.802;9.394;2023-05-10T08:54:57;1.93;;;1.40;;
6111;SDS011;3086;48.802;9.394;2023-05-10T08:58:19;1.47;;;1.37;;
6111;SDS011;3086;48.802;9.394;2023-05-10T09:01:40;1.47;;;1.43;;
6111;SDS011;3086;48.802;9.394;2023-05-10T09:05:05;2.20;;;1.43;;
6111;SDS011;3086;48.802;9.394;2023-05-10T09:08:28;1.50;;;1.40;;
6111;SDS011;3086;48.802;9.394;2023-05-10T09:11:51;3.00;;;1.60;;
6111;SDS011;3086;48.802;9.394;2023-05-10T09:15:13;1.23;;;1.23;;
6111;SDS011;3086;48.802;9.394;2023-05-10T09:18:36;2.00;;;1.43;;
6111;SDS011;3086;48.802;9.394;2023-05-10T09:21:57;1.70;;;1.60;;
6111;SDS011;3086;48.802;9.394;2023-05-10T09:25:21;2.10;;;1.60;;
6111;SDS011;3086;48.802;9.394;2023-05-10T09:28:49;1.53;;;1.43;;
6111;SDS011;3086;48.802;9.394;2023-05-10T09:32:12;1.07;;;1.07;;
6111;SDS011;3086;48.802;9.394;2023-05-10T09:35:33;4.90;;;1.50;;
6111;SDS011;3086;48.802;9.394;2023-05-10T09:38:56;1.00;;;1.00;;
6111;SDS011;3086;48.802;9.394;2023-05-10T09:42:20;1.27;;;1.20;;
6111;SDS011;3086;48.802;9.394;2023-05-10T09:45:41;0.80;;;0.80;;
6111;SDS011;3086;48.802;9.394;2023-05-10T09:49:02;1.23;;;1.13;;
6111;SDS011;3086;48.802;9.394;2023-05-10T09:52:24;0.87;;;0.87;;
6111;SDS011;3086;48.802;9.394;2023-05-10T09:55:46;3.70;;;1.30;;
6111;SDS011;3086;48.802;9.394;2023-05-10T09:59:11;2.07;;;1.07;;
6111;SDS011;3086;48.802;9.394;2023-05-10T10:02:33;2.20;;;1.20;;
6111;SDS011;3086;48.802;9.394;2023-05-10T10:05:54;1.20;;;1.10;;
6111;SDS011;3086;48.802;9.394;2023-05-10T10:09:16;2.33;;;1.93;;
6111;SDS011;3086;48.802;9.394;2023-05-10T10:12:39;9.23;;;5.33;;
6111;SDS011;3086;48.802;9.394;2023-05-10T10:16:03;1.30;;;1.30;;
6111;SDS011;3086;48.802;9.394;2023-05-10T10:19:25;1.27;;;1.00;;
6111;SDS011;3086;48.802;9.394;2023-05-10T10:22:46;2.10;;;1.27;;
6111;SDS011;3086;48.802;9.394;2023-05-10T10:26:08;4.00;;;3.70;;
6111;SDS011;3086;48.802;9.394;2023-05-10T10:29:32;1.53;;;1.20;;
6111;SDS011;3086;48.802;9.394;2023-05-10T10:33:06;4.20;;;3.90;;
6111;SDS011;3086;48.802;9.394;2023-05-10T10:36:39;6.50;;;5.40;;
6111;SDS011;3086;48.802;9.394;2023-05-10T10:40:05;3.50;;;3.20;;
6111;SDS011;3086;48.802;9.394;2023-05-10T10:43:43;2.30;;;1.90;;
6111;SDS011;3086;48.802;9.394;2023-05-10T10:47:06;2.27;;;1.20;;
6111;SDS011;3086;48.802;9.394;2023-05-10T10:50:32;2.40;;;2.20;;
6111;SDS011;3086;48.802;9.394;2023-05-10T10:54:08;3.33;;;3.03;;
6111;SDS011;3086;48.802;9.394;2023-05-10T10:57:42;2.43;;;1.80;;
6111;SDS011;3086;48.802;9.394;2023-05-10T11:01:11;3.20;;;1.50;;
6111;SDS011;3086;48.802;9.394;2023-05-10T11:04:41;3.23;;;2.97;;
6111;SDS011;3086;48.802;9.394;2023-05-10T11:08:09;2.10;;;1.47;;
6111;SDS011;3086;48.802;9.394;2023-05-10T11:11:33;1.97;;;1.10;;
6111;SDS011;3086;48.802;9.394;2023-05-10T11:14:56;1.27;;;1.00;;
6111;SDS011;3086;48.802;9.394;2023-05-10T11:18:19;1.40;;;1.30;;
6111;SDS011;3086;48.802;9.394;2023-05-10T11:21:45;1.23;;;0.70;;
6111;SDS011;3086;48.802;9.394;2023-05-10T11:25:08;1.00;;;1.00;;
6111;SDS011;3086;48.802;9.394;2023-05-10T11:28:30;0.80;;;0.80;;
6111;SDS011;3086;48.802;9.394;2023-05-10T11:31:52;1.00;;;1.00;;
6111;SDS011;3086;48.802;9.394;2023-05-10T11:35:13;1.10;;;1.10;;
6111;SDS011;3086;48.802;9.394;2023-05-10T11:38:35;1.03;;;0.93;;
6111;SDS011;3086;48.802;9.394;2023-05-10T11:41:58;1.27;;;1.17;;
6111;SDS011;3086;48.802;9.394;2023-05-10T11:45:20;1.17;;;0.93;;
6111;SDS011;3086;48.802;9.394;2023-05-10T11:48:42;2.33;;;1.40;;
6111;SDS011;3086;48.802;9.394;2023-05-10T11:52:04;2.17;;;1.27;;
6111;SDS011;3086;48.802;9.394;2023-05-10T11:55:26;1.50;;;1.40;;
6111;SDS011;3086;48.802;9.394;2023-05-10T11:58:53;2.67;;;1.80;;
6111;SDS011;3086;48.802;9.394;2023-05-10T12:02:15;1.50;;;1.40;;
6111;SDS011;3086;48.802;9.394;2023-05-10T12:05:37;3.13;;;1.60;;
6111;SDS011;3086;48.802;9.394;2023-05-10T12:09:02;1.87;;;1.47;;
6111;SDS011;3086;48.802;9.394;2023-05-10T12:12:26;2.33;;;1.60;;
6111;SDS011;3086;48.802;9.394;2023-05-10T12:15:49;3.73;;;2.07;;
6111;SDS011;3086;48.802;9.394;2023-05-10T12:19:11;2.13;;;1.30;;
6111;SDS011;3086;48.802;9.394;2023-05-10T12:22:33;1.60;;;1.50;;
6111;SDS011;3086;48.802;9.394;2023-05-10T12:26:01;2.03;;;1.50;;
6111;SDS011;3086;48.802;9.394;2023-05-10T12:29:23;1.77;;;1.33;;
6111;SDS011;3086;48.802;9.394;2023-05-10T12:32:46;2.80;;;1.60;;
6111;SDS011;3086;48.802;9.394;2023-05-10T12:36:08;4.00;;;1.70;;
6111;SDS011;3086;48.802;9.394;2023-05-10T12:39:39;2.20;;;1.40;;
6111;SDS011;3086;48.802;9.394;2023-05-10T12:43:01;1.67;;;1.40;;
6111;SDS011;3086;48.802;9.394;2023-05-10T12:46:22;1.50;;;1.40;;
6111;SDS011;3086;48.802;9.394;2023-05-10T12:49:49;1.27;;;1.17;;
6111;SDS011;3086;48.802;9.394;2023-05-10T12:53:11;1.93;;;1.33;;
6111;SDS011;3086;48.802;9.394;2023-05-10T12:56:33;3.03;;;1.60;;
6111;SDS011;3086;48.802;9.394;2023-05-10T12:59:55;6.47;;;3.97;;
6111;SDS011;3086;48.802;9.394;2023-05-10T13:03:16;2.80;;;1.57;;
6111;SDS011;3086;48.802;9.394;2023-05-10T13:06:39;3.13;;;1.60;;
6111;SDS011;3086;48.802;9.394;2023-05-10T13:10:01;3.27;;;1.50;;
6111;SDS011;3086;48.802;9.394;2023-05-10T13:13:22;3.57;;;1.50;;
6111;SDS011;3086;48.802;9.394;2023-05-10T13:16:44;4.67;;;1.70;;
6111;SDS011;3086;48.802;9.394;2023-05-10T13:20:06;3.97;;;1.43;;
6111;SDS011;3086;48.802;9.394;2023-05-10T13:23:30;4.40;;;1.73;;
6111;SDS011;3086;48.802;9.394;2023-05-10T13:26:52;2.60;;;2.07;;
6111;SDS011;3086;48.802;9.394;2023-05-10T13:30:13;2.50;;;1.70;;
6111;SDS011;3086;48.802;9.394;2023-05-10T13:33:35;3.07;;;1.33;;
6111;SDS011;3086;48.802;9.394;2023-05-10T13:36:57;3.00;;;1.50;;
6111;SDS011;3086;48.802;9.394;2023-05-10T13:40:20;1.53;;;1.30;;
6111;SDS011;3086;48.802;9.394;2023-05-10T13:43:41;2.50;;;1.70;;
6111;SDS011;3086;48.802;9.394;2023-05-10T13:47:03;1.57;;;1.47;;
6111;SDS011;3086;48.802;9.394;2023-05-10T13:50:24;2.37;;;1.50;;
6111;SDS011;3086;48.802;9.394;2023-05-10T13:53:46;3.43;;;1.43;;
6111;SDS011;3086;48.802;9.394;2023-05-10T13:57:09;2.27;;;1.30;;
6111;SDS011;3086;48.802;9.394;2023-05-10T14:00:33;2.07;;;1.30;;
6111;SDS011;3086;48.802;9.394;2023-05-10T14:03:55;2.33;;;1.80;;
6111;SDS011;3086;48.802;9.394;2023-05-10T14:07:17;2.80;;;2.03;;
6111;SDS011;3086;48.802;9.394;2023-05-10T14:10:38;2.20;;;2.00;;
6111;SDS011;3086;48.802;9.394;2023-05-10T14:14:01;3.00;;;1.60;;
6111;SDS011;3086;48.802;9.394;2023-05-10T14:17:23;7.27;;;3.30;;
6111;SDS011;3086;48.802;9.394;2023-05-10T14:20:45;2.60;;;1.40;;
6111;SDS011;3086;48.802;9.394;2023-05-10T14:24:06;1.50;;;1.40;;
6111;SDS011;3086;48.802;9.394;2023-05-10T14:27:28;1.70;;;1.60;;
6111;SDS011;3086;48.802;9.394;2023-05-10T14:30:51;1.97;;;1.87;;
6111;SDS011;3086;48.802;9.394;2023-05-10T14:34:13;4.57;;;1.80;;
6111;SDS011;3086;48.802;9.394;2023-05-10T14:37:34;2.37;;;1.90;;
6111;SDS011;3086;48.802;9.394;2023-05-10T14:40:56;3.10;;;1.60;;
6111;SDS011;3086;48.802;9.394;2023-05-10T14:44:18;3.43;;;1.70;;
6111;SDS011;3086;48.802;9.394;2023-05-10T14:47:41;6.60;;;2.77;;
6111;SDS011;3086;48.802;9.394;2023-05-10T14:51:03;3.60;;;2.77;;
6111;SDS011;3086;48.802;9.394;2023-05-10T14:54:24;3.93;;;1.93;;
6111;SDS011;3086;48.802;9.394;2023-05-10T14:57:46;2.87;;;2.10;;
6111;SDS011;3086;48.802;9.394;2023-05-10T15:01:09;6.70;;;1.80;;
6111;SDS011;3086;48.802;9.394;2023-05-10T15:04:32;1.40;;;1.30;;
6111;SDS011;3086;48.802;9.394;2023-05-10T15:07:53;2.20;;;1.43;;
6111;SDS011;3086;48.802;9.394;2023-05-10T15:11:15;2.50;;;2.30;;
6111;SDS011;3086;48.802;9.394;2023-05-10T15:14:37;3.30;;;3.00;;
6111;SDS011;3086;48.802;9.394;2023-05-10T15:17:59;2.87;;;1.60;;
6111;SDS011;3086;48.802;9.394;2023-05-10T15:21:22;3.13;;;1.70;;
6111;SDS011;3086;48.802;9.394;2023-05-10T15:24:43;2.67;;;1.70;;
6111;SDS011;3086;48.802;9.394;2023-05-10T15:28:05;8.07;;;6.50;;
6111;SDS011;3086;48.802;9.394;2023-05-10T15:31:26;22.63;;;15.27;;
6111;SDS011;3086;48.802;9.394;2023-05-10T15:34:48;16.43;;;12.83;;
6111;SDS011;3086;48.802;9.394;2023-05-10T15:38:11;2.33;;;2.07;;
6111;SDS011;3086;48.802;9.394;2023-05-10T15:41:32;1.67;;;1.57;;
6111;SDS011;3086;48.802;9.394;2023-05-10T15:44:54;2.20;;;1.30;;
6111;SDS011;3086;48.802;9.394;2023-05-10T15:48:15;2.40;;;2.20;;
6111;SDS011;3086;48.802;9.394;2023-05-10T15:51:37;3.90;;;2.40;;
6111;SDS011;3086;48.802;9.394;2023-05-10T15:54:59;5.43;;;4.10;;
6111;SDS011;3086;48.802;9.394;2023-05-10T15:58:21;2.37;;;1.90;;
6111;SDS011;3086;48.802;9.394;2023-05-10T16:01:42;2.53;;;1.33;;
6111;SDS011;3086;48.802;9.394;2023-05-10T16:05:04;2.80;;;1.40;;
6111;SDS011;3086;48.802;9.394;2023-05-10T16:08:26;1.70;;;1.60;;
6111;SDS011;3086;48.802;9.394;2023-05-10T16:11:51;2.10;;;1.40;;
6111;SDS011;3086;48.802;9.394;2023-05-10T16:15:12;1.83;;;1.43;;
6111;SDS011;3086;48.802;9.394;2023-05-10T16:18:34;2.20;;;2.00;;
6111;SDS011;3086;48.802;9.394;2023-05-10T16:21:55;4.43;;;1.87;;
6111;SDS011;3086;48.802;9.394;2023-05-10T16:25:17;1.30;;;1.20;;
6111;SDS011;3086;48.802;9.394;2023-05-10T16:28:40;1.93;;;1.50;;
6111;SDS011;3086;48.802;9.394;2023-05-10T16:32:01;1.73;;;1.30;;
6111;SDS011;3086;48.802;9.394;2023-05-10T16:35:23;4.73;;;1.17;;
6111;SDS011;3086;48.802;9.394;2023-05-10T16:38:45;1.93;;;1.57;;
6111;SDS011;3086;48.802;9.394;2023-05-10T16:42:06;2.07;;;1.30;;
6111;SDS011;3086;48.802;9.394;2023-05-10T16:45:31;1.63;;;1.43;;
6111;SDS011;3086;48.802;9.394;2023-05-10T16:48:52;3.00;;;2.67;;
6111;SDS011;3086;48.802;9.394;2023-05-10T16:52:15;1.50;;;1.40;;
6111;SDS011;3086;48.802;9.394;2023-05-10T16:55:36;2.63;;;1.50;;
6111;SDS011;3086;48.802;9.394;2023-05-10T16:58:58;1.33;;;1.30;;
6111;SDS011;3086;48.802;9.394;2023-05-10T17:02:21;2.90;;;1.20;;
6111;SDS011;3086;48.802;9.394;2023-05-10T17:05:43;1.50;;;1.33;;
6111;SDS011;3086;48.802;9.394;2023-05-10T17:09:04;3.47;;;1.43;;
6111;SDS011;3086;48.802;9.394;2023-05-10T17:12:26;2.30;;;1.80;;
6111;SDS011;3086;48.802;9.394;2023-05-10T17:15:47;2.20;;;1.93;;
6111;SDS011;3086;48.802;9.394;2023-05-10T17:19:10;2.67;;;1.70;;
6111;SDS011;3086;48.802;9.394;2023-05-10T17:22:32;1.70;;;1.60;;
6111;SDS011;3086;48.802;9.394;2023-05-10T17:25:53;1.73;;;1.30;;
6111;SDS011;3086;48.802;9.394;2023-05-10T17:29:15;1.80;;;1.70;;
6111;SDS011;3086;48.802;9.394;2023-05-10T17:32:36;3.13;;;1.13;;
6111;SDS011;3086;48.802;9.394;2023-05-10T17:35:59;1.50;;;1.40;;
6111;SDS011;3086;48.802;9.394;2023-05-10T17:39:21;2.03;;;1.40;;
6111;SDS011;3086;48.802;9.394;2023-05-10T17:42:43;1.97;;;1.43;;
6111;SDS011;3086;48.802;9.394;2023-05-10T17:46:04;1.43;;;1.33;;
6111;SDS011;3086;48.802;9.394;2023-05-10T17:49:26;1.50;;;1.40;;
6111;SDS011;3086;48.802;9.394;2023-05-10T17:52:49;2.37;;;1.60;;
6111;SDS011;3086;48.802;9.394;2023-05-10T17:56:11;2.23;;;1.80;;
6111;SDS011;3086;48.802;9.394;2023-05-10T17:59:32;3.23;;;2.20;;
6111;SDS011;3086;48.802;9.394;2023-05-10T18:02:54;7.57;;;1.70;;
6111;SDS011;3086;48.802;9.394;2023-05-10T18:06:15;4.27;;;1.70;;
6111;SDS011;3086;48.802;9.394;2023-05-10T18:09:38;2.43;;;1.67;;
6111;SDS011;3086;48.802;9.394;2023-05-10T18:13:00;2.20;;;1.60;;
6111;SDS011;3086;48.802;9.394;2023-05-10T18:16:24;1.70;;;1.50;;
6111;SDS011;3086;48.802;9.394;2023-05-10T18:19:45;3.67;;;3.30;;
6111;SDS011;3086;48.802;9.394;2023-05-10T18:23:07;6.63;;;4.13;;
6111;SDS011;3086;48.802;9.394;2023-05-10T18:26:30;6.27;;;3.53;;
6111;SDS011;3086;48.802;9.394;2023-05-10T18:29:51;3.10;;;2.80;;
6111;SDS011;3086;48.802;9.394;2023-05-10T18:33:13;2.77;;;2.00;;
6111;SDS011;3086;48.802;9.394;2023-05-10T18:36:35;5.13;;;4.20;;
6111;SDS011;3086;48.802;9.394;2023-05-10T18:39:56;4.47;;;1.87;;
6111;SDS011;3086;48.802;9.394;2023-05-10T18:43:19;2.03;;;1.33;;
6111;SDS011;3086;48.802;9.394;2023-05-10T18:46:41;3.17;;;2.00;;
6111;SDS011;3086;48.802;9.394;2023-05-10T18:50:02;5.97;;;2.70;;
6111;SDS011;3086;48.802;9.394;2023-05-10T18:53:24;6.87;;;2.40;;
6111;SDS011;3086;48.802;9.394;2023-05-10T18:56:47;2.00;;;1.90;;
6111;SDS011;3086;48.802;9.394;2023-05-10T19:00:10;4.37;;;1.80;;
6111;SDS011;3086;48.802;9.394;2023-05-10T19:03:33;4.97;;;1.77;;
6111;SDS011;3086;48.802;9.394;2023-05-10T19:06:55;2.83;;;1.80;;
6111;SDS011;3086;48.802;9.394;2023-05-10T19:10:17;1.57;;;1.47;;
6111;SDS011;3086;48.802;9.394;2023-05-10T19:13:38;2.67;;;1.90;;
6111;SDS011;3086;48.802;9.394;2023-05-10T19:17:01;1.77;;;1.67;;
6111;SDS011;3086;48.802;9.394;2023-05-10T19:20:23;2.87;;;1.90;;
6111;SDS011;3086;48.802;9.394;2023-05-10T19:23:44;2.90;;;1.73;;
6111;SDS011;3086;48.802;9.394;2023-05-10T19:27:06;1.70;;;1.60;;
6111;SDS011;3086;48.802;9.394;2023-05-10T19:30:28;2.70;;;1.70;;
6111;SDS011;3086;48.802;9.394;2023-05-10T19:33:52;2.60;;;2.03;;
6111;SDS011;3086;48.802;9.394;2023-05-10T19:37:13;2.00;;;1.80;;
6111;SDS011;3086;48.802;9.394;2023-05-10T19:40:35;1.90;;;1.80;;
6111;SDS011;3086;48.802;9.394;2023-05-10T19:43:56;1.70;;;1.60;;
6111;SDS011;3086;48.802;9.394;2023-05-10T19:47:18;2.23;;;1.63;;
6111;SDS011;3086;48.802;9.394;2023-05-10T19:50:41;2.40;;;2.00;;
6111;SDS011;3086;48.802;9.394;2023-05-10T19:54:03;2.60;;;2.00;;
6111;SDS011;3086;48.802;9.394;2023-05-10T19:57:24;5.90;;;1.90;;
6111;SDS011;3086;48.802;9.394;2023-05-10T20:00:46;5.17;;;2.20;;
6111;SDS011;3086;48.802;9.394;2023-05-10T20:04:08;2.20;;;1.93;;
6111;SDS011;3086;48.802;9.394;2023-05-10T20:07:31;4.87;;;2.47;;
6111;SDS011;3086;48.802;9.394;2023-05-10T20:10:52;2.07;;;1.87;;
6111;SDS011;3086;48.802;9.394;2023-05-10T20:14:16;7.27;;;2.10;;
6111;SDS011;3086;48.802;9.394;2023-05-10T20:17:38;3.83;;;2.33;;
6111;SDS011;3086;48.802;9.394;2023-05-10T20:20:59;5.03;;;2.10;;
6111;SDS011;3086;48.802;9.394;2023-05-10T20:24:22;5.27;;;2.27;;
6111;SDS011;3086;48.802;9.394;2023-05-10T20:27:44;9.67;;;2.50;;
6111;SDS011;3086;48.802;9.394;2023-05-10T20:31:05;1.83;;;1.73;;
6111;SDS011;3086;48.802;9.394;2023-05-10T20:34:28;2.60;;;2.00;;
6111;SDS011;3086;48.802;9.394;2023-05-10T20:37:50;2.13;;;1.70;;
6111;SDS011;3086;48.802;9.394;2023-05-10T20:41:13;2.30;;;2.10;;
6111;SDS011;3086;48.802;9.394;2023-05-10T20:44:35;2.97;;;2.00;;
6111;SDS011;3086;48.802;9.394;2023-05-10T20:47:56;1.90;;;1.80;;
6111;SDS011;3086;48.802;9.394;2023-05-10T20:51:18;3.10;;;2.20;;
6111;SDS011;3086;48.802;9.394;2023-05-10T20:54:39;4.50;;;2.20;;
6111;SDS011;3086;48.802;9.394;2023-05-10T20:58:02;3.70;;;2.60;;
6111;SDS011;3086;48.802;9.394;2023-05-10T21:01:24;2.60;;;2.40;;
6111;SDS011;3086;48.802;9.394;2023-05-10T21:04:45;2.60;;;2.30;;
6111;SDS011;3086;48.802;9.394;2023-05-10T21:08:07;10.77;;;2.10;;
6111;SDS011;3086;48.802;9.394;2023-05-10T21:11:28;4.33;;;2.00;;